createdAt,value
2019-04-13T00:00:04.296Z,102123.31
2019-04-13T00:02:34.408Z,102114.07
2019-04-13T00:05:04.472Z,102117.55
2019-04-13T00:07:33.432Z,102116.02
2019-04-13T00:10:01.877Z,102120.00
2019-04-13T00:12:30.912Z,102112.27
2019-04-13T00:14:59.344Z,102113.81
2019-04-13T00:17:28.200Z,102110.84
2019-04-13T00:19:56.668Z,102113.83
2019-04-13T00:22:25.282Z,102106.36
2019-04-13T00:24:53.720Z,102110.75
2019-04-13T00:27:22.191Z,102102.39
2019-04-13T00:29:50.656Z,102109.56
2019-04-13T00:32:19.135Z,102096.98
2019-04-13T00:34:47.626Z,102103.14
2019-04-13T00:37:16.058Z,102109.44
2019-04-13T00:39:44.522Z,102102.25
2019-04-13T00:42:12.976Z,102101.61
2019-04-13T00:44:41.402Z,102096.23
2019-04-13T00:47:09.947Z,102101.63
2019-04-13T00:49:38.404Z,102103.91
2019-04-13T00:52:07.087Z,102104.95
2019-04-13T00:54:35.527Z,102098.02
2019-04-13T00:57:04.036Z,102095.70
2019-04-13T00:59:32.478Z,102097.38
2019-04-13T01:02:00.941Z,102093.14
2019-04-13T01:04:29.402Z,102094.39
2019-04-13T01:06:59.417Z,102096.21
2019-04-13T01:09:27.858Z,102089.92
2019-04-13T01:11:56.330Z,102088.25
2019-04-13T01:14:24.785Z,102091.21
2019-04-13T01:16:53.250Z,102081.83
2019-04-13T01:19:21.693Z,102088.13
2019-04-13T01:21:50.109Z,102086.07
2019-04-13T01:24:18.596Z,102085.44
2019-04-13T01:26:47.036Z,102078.75
2019-04-13T01:29:15.479Z,102089.39
2019-04-13T01:31:44.205Z,102073.99
2019-04-13T01:34:12.644Z,102078.50
2019-04-13T01:36:41.107Z,102091.69
2019-04-13T01:39:09.568Z,102084.27
2019-04-13T01:41:38.003Z,102082.34
2019-04-13T01:44:06.469Z,102077.83
2019-04-13T01:46:34.922Z,102078.61
2019-04-13T01:49:03.384Z,102073.72
2019-04-13T01:51:31.831Z,102079.12
2019-04-13T01:54:00.283Z,102084.91
2019-04-13T01:56:28.758Z,102074.63
2019-04-13T01:58:57.213Z,102074.74
2019-04-13T02:01:27.359Z,102076.17
2019-04-13T02:03:57.459Z,102062.69
2019-04-13T02:06:25.969Z,102073.06
2019-04-13T02:09:08.347Z,102075.39
2019-04-13T02:11:38.301Z,102068.97
2019-04-13T02:14:06.754Z,102067.42
2019-04-13T02:16:35.192Z,102068.97
2019-04-13T02:19:03.664Z,102071.03
2019-04-13T02:21:32.109Z,102069.47
2019-04-13T02:24:00.584Z,102071.00
2019-04-13T02:26:29.011Z,102066.40
2019-04-13T02:28:57.482Z,102061.26
2019-04-13T02:31:25.929Z,102065.25
2019-04-13T02:33:54.373Z,102061.01
2019-04-13T02:36:22.839Z,102063.83
2019-04-13T02:38:51.284Z,102062.54
2019-04-13T02:41:19.735Z,102056.66
2019-04-13T02:43:48.191Z,102057.16
2019-04-13T02:46:16.696Z,102056.27
2019-04-13T02:48:45.316Z,102057.30
2019-04-13T02:51:13.764Z,102060.50
2019-04-13T02:53:42.194Z,102058.97
2019-04-13T02:56:10.660Z,102062.83
2019-04-13T02:58:39.112Z,102054.84
2019-04-13T03:01:07.556Z,102058.70
2019-04-13T03:03:36.032Z,102059.34
2019-04-13T03:06:04.506Z,102066.90
2019-04-13T03:08:33.013Z,102067.55
2019-04-13T03:11:01.497Z,102062.05
2019-04-13T03:13:30.414Z,102054.33
2019-04-13T03:16:00.507Z,102057.69
2019-04-13T03:18:30.602Z,102058.44
2019-04-13T03:20:59.081Z,102055.12
2019-04-13T03:23:27.520Z,102051.52
2019-04-13T03:25:55.999Z,102055.48
2019-04-13T03:28:24.462Z,102049.20
2019-04-13T03:30:52.933Z,102055.87
2019-04-13T03:33:21.389Z,102051.63
2019-04-13T03:35:59.198Z,102059.61
2019-04-13T03:38:20.003Z,102056.38
2019-04-13T03:40:48.470Z,102059.73
2019-04-13T03:43:16.920Z,102051.77
2019-04-13T03:45:45.357Z,102053.80
2019-04-13T03:48:13.821Z,102050.09
2019-04-13T03:50:42.276Z,102053.05
2019-04-13T03:53:10.737Z,102053.03
2019-04-13T03:55:39.218Z,102053.03
2019-04-13T03:58:07.696Z,102051.77
2019-04-13T04:00:36.134Z,102054.86
2019-04-13T04:03:04.643Z,102049.95
2019-04-13T04:05:33.220Z,102049.20
2019-04-13T04:08:01.727Z,102053.80
2019-04-13T04:10:30.128Z,102052.78
2019-04-13T04:12:58.562Z,102058.84
2019-04-13T04:15:27.038Z,102059.73
2019-04-13T04:17:55.489Z,102058.69
2019-04-13T04:20:23.969Z,102059.33
2019-04-13T04:22:52.413Z,102053.55
2019-04-13T04:25:20.886Z,102067.94
2019-04-13T04:27:49.374Z,102054.70
2019-04-13T04:30:17.809Z,102060.23
2019-04-13T04:32:46.288Z,102057.95
2019-04-13T04:35:14.804Z,102056.38
2019-04-13T04:37:43.272Z,102063.83
2019-04-13T04:40:11.983Z,102063.05
2019-04-13T04:42:40.409Z,102067.69
2019-04-13T04:45:09.537Z,102066.39
2019-04-13T04:47:37.969Z,102068.08
2019-04-13T04:50:07.762Z,102068.19
2019-04-13T04:52:36.219Z,102062.16
2019-04-13T04:55:05.618Z,102071.00
2019-04-13T04:57:34.045Z,102066.54
2019-04-13T05:00:02.568Z,102068.44
2019-04-13T05:02:31.027Z,102072.92
2019-04-13T05:04:59.497Z,102061.77
2019-04-13T05:07:27.940Z,102064.87
2019-04-13T05:09:56.409Z,102065.36
2019-04-13T05:12:24.884Z,102055.48
2019-04-13T05:14:53.350Z,102058.19
2019-04-13T05:17:21.853Z,102059.47
2019-04-13T05:19:50.385Z,102052.93
2019-04-13T05:22:26.077Z,102056.90
2019-04-13T05:24:49.249Z,102059.88
2019-04-13T05:27:17.709Z,102067.83
2019-04-13T05:29:46.170Z,102065.66
2019-04-13T05:32:14.624Z,102075.16
2019-04-13T05:34:43.053Z,102073.59
2019-04-13T05:37:11.529Z,102073.37
2019-04-13T05:39:39.975Z,102069.73
2019-04-13T05:42:08.446Z,102077.45
2019-04-13T05:44:36.890Z,102075.65
2019-04-13T05:47:05.415Z,102077.84
2019-04-13T05:49:33.865Z,102081.83
2019-04-13T05:52:02.319Z,102083.63
2019-04-13T05:54:30.752Z,102082.56
2019-04-13T05:56:59.241Z,102077.15
2019-04-13T05:59:27.689Z,102081.97
2019-04-13T06:01:56.409Z,102090.44
2019-04-13T06:04:24.894Z,102081.70
2019-04-13T06:06:59.779Z,102090.56
2019-04-13T06:09:24.875Z,102089.80
2019-04-13T06:11:53.906Z,102091.32
2019-04-13T06:14:22.349Z,102090.31
2019-04-13T06:16:50.817Z,102084.39
2019-04-13T06:19:19.295Z,102091.34
2019-04-13T06:21:47.722Z,102090.56
2019-04-13T06:24:16.196Z,102087.22
2019-04-13T06:26:44.659Z,102087.73
2019-04-13T06:29:13.098Z,102092.88
2019-04-13T06:31:54.870Z,102090.55
2019-04-13T06:34:27.620Z,102090.69
2019-04-13T06:36:56.047Z,102086.45
2019-04-13T06:39:24.512Z,102090.05
2019-04-13T06:41:52.976Z,102086.43
2019-04-13T06:44:21.448Z,102094.80
2019-04-13T06:46:49.926Z,102091.34
2019-04-13T06:49:19.702Z,102086.33
2019-04-13T06:51:48.557Z,102089.66
2019-04-13T06:54:17.000Z,102079.12
2019-04-13T06:56:45.458Z,102083.23
2019-04-13T06:59:13.908Z,102087.72
2019-04-13T07:01:42.336Z,102089.37
2019-04-13T07:04:10.810Z,102080.40
2019-04-13T07:06:47.538Z,102092.87
2019-04-13T07:09:26.064Z,102090.94
2019-04-13T07:11:55.971Z,102087.83
2019-04-13T07:14:23.642Z,102081.50
2019-04-13T07:16:53.733Z,102085.89
2019-04-13T07:19:22.660Z,102085.61
2019-04-13T07:21:51.696Z,102080.16
2019-04-13T07:24:20.265Z,102081.96
2019-04-13T07:26:48.748Z,102078.66
2019-04-13T07:29:17.178Z,102085.03
2019-04-13T07:31:45.640Z,102072.06
2019-04-13T07:34:14.095Z,102072.09
2019-04-13T07:36:42.548Z,102079.31
2019-04-13T07:39:11.126Z,102087.08
2019-04-13T07:41:39.643Z,102089.66
2019-04-13T07:44:09.746Z,102082.91
2019-04-13T07:46:55.897Z,102083.48
2019-04-13T07:49:43.986Z,102083.45
2019-04-13T07:52:14.112Z,102088.55
2019-04-13T07:54:45.154Z,102079.12
2019-04-13T07:57:12.772Z,102073.01
2019-04-13T07:59:41.204Z,102076.12
2019-04-13T08:02:09.651Z,102080.47
2019-04-13T08:04:38.107Z,102084.95
2019-04-13T08:07:06.633Z,102083.70
2019-04-13T08:09:35.117Z,102074.60
2019-04-13T08:12:03.723Z,102079.80
2019-04-13T08:14:33.166Z,102085.09
2019-04-13T08:17:06.130Z,102080.87
2019-04-13T08:19:35.131Z,102080.69
2019-04-13T08:22:04.728Z,102082.53
2019-04-13T08:24:33.377Z,102080.98
2019-04-13T08:27:01.853Z,102084.95
2019-04-13T08:29:30.311Z,102081.17
2019-04-13T08:32:01.938Z,102085.04
2019-04-13T08:34:29.710Z,102082.51
2019-04-13T08:36:58.240Z,102079.45
2019-04-13T08:39:26.956Z,102076.95
2019-04-13T08:41:55.503Z,102073.67
2019-04-13T08:44:24.041Z,102079.58
2019-04-13T08:46:52.573Z,102074.89
2019-04-13T08:49:21.025Z,102070.67
2019-04-13T08:51:49.484Z,102077.55
2019-04-13T08:54:17.939Z,102074.75
2019-04-13T08:56:46.384Z,102078.16
2019-04-13T08:59:15.127Z,102076.74
2019-04-13T09:01:43.699Z,102071.07
2019-04-13T09:04:12.159Z,102071.14
2019-04-13T09:06:40.586Z,102067.02
2019-04-13T09:09:09.047Z,102075.56
2019-04-13T09:11:38.615Z,102065.13
2019-04-13T09:14:12.017Z,102070.19
2019-04-13T09:16:37.432Z,102081.17
2019-04-13T09:19:24.919Z,102081.61
2019-04-13T09:21:55.613Z,102072.52
2019-04-13T09:24:24.195Z,102063.22
2019-04-13T09:26:52.675Z,102068.07
2019-04-13T09:29:22.790Z,102070.18
2019-04-13T09:31:51.480Z,102069.64
2019-04-13T09:34:31.650Z,102057.45
2019-04-13T09:36:50.855Z,102057.98
2019-04-13T09:39:21.770Z,102045.72
2019-04-13T09:41:49.486Z,102057.31
2019-04-13T09:44:25.588Z,102054.30
2019-04-13T09:46:55.234Z,102047.64
2019-04-13T09:49:26.841Z,102053.64
2019-04-13T09:51:59.971Z,102059.51
2019-04-13T09:54:25.956Z,102043.42
2019-04-13T09:56:54.434Z,102042.47
2019-04-13T09:59:22.880Z,102040.94
2019-04-13T10:01:51.439Z,102032.12
2019-04-13T10:04:19.895Z,102023.97
2019-04-13T10:06:48.368Z,102023.09
2019-04-13T10:09:16.811Z,102017.63
2019-04-13T10:12:01.699Z,102011.73
2019-04-13T10:14:36.421Z,102011.53
2019-04-13T10:17:15.298Z,102009.55
2019-04-13T10:19:43.746Z,102007.16
2019-04-13T10:22:12.207Z,102005.38
2019-04-13T10:24:40.667Z,102000.70
2019-04-13T10:27:09.110Z,102009.09
2019-04-13T10:29:38.127Z,102005.37
2019-04-13T10:32:06.579Z,101998.75
2019-04-13T10:34:35.046Z,102003.64
2019-04-13T10:37:03.526Z,101999.47
2019-04-13T10:39:31.972Z,101996.58
2019-04-13T10:42:00.684Z,101988.22
2019-04-13T10:44:30.845Z,101987.86
2019-04-13T10:47:02.582Z,101989.31
2019-04-13T10:49:34.624Z,101984.34
2019-04-13T10:52:20.651Z,101976.17
2019-04-13T10:54:46.826Z,101976.90
2019-04-13T10:57:15.325Z,101978.48
2019-04-13T10:59:43.839Z,101974.52
2019-04-13T11:02:21.777Z,101979.05
2019-04-13T11:04:42.452Z,101982.13
2019-04-13T11:07:10.930Z,101964.46
2019-04-13T11:09:39.393Z,101976.31
2019-04-13T11:12:08.033Z,101971.94
2019-04-13T11:14:36.470Z,101970.64
2019-04-13T11:17:06.755Z,101969.23
2019-04-13T11:19:35.452Z,101965.47
2019-04-13T11:22:03.936Z,101967.84
2019-04-13T11:24:32.407Z,101954.43
2019-04-13T11:27:00.867Z,101954.79
2019-04-13T11:29:29.338Z,101956.65
2019-04-13T11:31:57.820Z,101946.02
2019-04-13T11:34:29.265Z,101953.25
2019-04-13T11:36:56.447Z,101954.19
2019-04-13T11:39:33.721Z,101964.86
2019-04-13T11:42:13.100Z,101946.74
2019-04-13T11:44:52.216Z,101954.53
2019-04-13T11:47:22.559Z,101958.70
2019-04-13T11:49:51.050Z,101955.70
2019-04-13T11:52:19.512Z,101952.55
2019-04-13T11:54:47.959Z,101956.20
2019-04-13T11:57:16.450Z,101957.89
2019-04-13T11:59:44.911Z,101948.66
2019-04-13T12:02:17.696Z,101957.83
2019-04-13T12:05:03.664Z,101954.02
2019-04-13T12:07:33.755Z,101961.48
2019-04-13T12:10:03.918Z,101953.20
2019-04-13T12:12:43.197Z,101947.01
2019-04-13T12:15:25.556Z,101948.83
2019-04-13T12:17:55.641Z,101956.50
2019-04-13T12:20:28.420Z,101968.14
2019-04-13T12:22:56.945Z,101977.66
2019-04-13T12:25:26.487Z,101961.25
2019-04-13T12:27:54.939Z,101975.64
2019-04-13T12:30:25.032Z,101960.55
2019-04-13T12:32:53.527Z,101972.14
2019-04-13T12:35:22.005Z,101965.27
2019-04-13T12:37:50.513Z,101969.44
2019-04-13T12:40:23.267Z,101978.38
2019-04-13T12:42:51.781Z,101964.53
2019-04-13T12:45:20.331Z,101959.94
2019-04-13T12:47:48.772Z,101961.47
2019-04-13T12:50:17.260Z,101955.71
2019-04-13T12:52:45.739Z,101952.73
2019-04-13T12:55:14.504Z,101956.69
2019-04-13T12:57:42.956Z,101957.12
2019-04-13T13:00:13.076Z,101967.55
2019-04-13T13:02:45.894Z,101957.38
2019-04-13T13:05:19.113Z,101960.88
2019-04-13T13:07:47.604Z,101955.09
2019-04-13T13:10:16.551Z,101943.98
2019-04-13T13:12:45.645Z,101949.36
2019-04-13T13:15:15.473Z,101949.73
2019-04-13T13:17:43.959Z,101950.66
2019-04-13T13:20:16.443Z,101959.98
2019-04-13T13:22:43.063Z,101954.20
2019-04-13T13:25:13.795Z,101946.61
2019-04-13T13:27:41.796Z,101944.95
2019-04-13T13:30:10.789Z,101940.14
2019-04-13T13:32:39.253Z,101942.37
2019-04-13T13:35:07.932Z,101930.19
2019-04-13T13:37:38.458Z,101935.94
2019-04-13T13:40:07.062Z,101929.50
2019-04-13T13:42:38.169Z,101930.14
2019-04-13T13:45:06.992Z,101928.71
2019-04-13T13:47:35.460Z,101924.60
2019-04-13T13:50:05.798Z,101919.73
2019-04-13T13:52:35.530Z,101925.19
2019-04-13T13:55:06.877Z,101922.95
2019-04-13T13:57:37.264Z,101924.50
2019-04-13T14:00:13.586Z,101921.66
2019-04-13T14:02:42.046Z,101921.59
2019-04-13T14:05:10.592Z,101913.50
2019-04-13T14:07:39.180Z,101912.72
2019-04-13T14:10:12.286Z,101914.03
2019-04-13T14:12:42.527Z,101903.97
2019-04-13T14:15:12.736Z,101907.41
2019-04-13T14:17:41.167Z,101905.38
2019-04-13T14:20:11.012Z,101897.38
2019-04-13T14:22:40.293Z,101902.75
2019-04-13T14:25:09.162Z,101897.77
2019-04-13T14:27:37.628Z,101882.45
2019-04-13T14:30:08.538Z,101893.77
2019-04-13T14:32:37.238Z,101893.69
2019-04-13T14:35:07.281Z,101889.73
2019-04-13T14:37:35.882Z,101890.01
2019-04-13T14:40:06.705Z,101879.80
2019-04-13T14:42:35.329Z,101885.44
2019-04-13T14:45:04.760Z,101888.14
2019-04-13T14:47:35.525Z,101883.27
2019-04-13T14:50:04.271Z,101886.38
2019-04-13T14:52:32.713Z,101884.34
2019-04-13T14:55:01.145Z,101884.42
2019-04-13T14:57:29.611Z,101883.81
2019-04-13T15:00:00.209Z,101883.50
2019-04-13T15:02:28.217Z,101887.52
2019-04-13T15:04:56.678Z,101883.61
2019-04-13T15:07:25.181Z,101890.82
2019-04-13T15:09:53.701Z,101887.94
2019-04-13T15:12:22.204Z,101885.52
2019-04-13T15:14:51.849Z,101887.19
2019-04-13T15:17:21.896Z,101879.56
2019-04-13T15:20:00.980Z,101879.04
2019-04-13T15:22:21.333Z,101881.66
2019-04-13T15:24:53.428Z,101884.87
2019-04-13T15:27:20.776Z,101886.06
2019-04-13T15:29:49.982Z,101881.00
2019-04-13T15:32:22.832Z,101888.46
2019-04-13T15:34:48.938Z,101891.22
2019-04-13T15:37:17.589Z,101889.91
2019-04-13T15:39:48.220Z,101884.04
2019-04-13T15:42:22.170Z,101889.20
2019-04-13T15:44:48.303Z,101894.91
2019-04-13T15:47:19.228Z,101886.16
2019-04-13T15:49:46.752Z,101883.16
2019-04-13T15:52:15.217Z,101886.03
2019-04-13T15:54:43.707Z,101888.62
2019-04-13T15:57:13.228Z,101886.28
2019-04-13T15:59:43.572Z,101890.38
2019-04-13T16:02:12.268Z,101889.77
2019-04-13T16:04:43.112Z,101890.49
2019-04-13T16:07:11.591Z,101888.04
2019-04-13T16:09:41.747Z,101880.50
2019-04-13T16:12:17.697Z,101879.98
2019-04-13T16:14:46.374Z,101887.14
2019-04-13T16:17:14.880Z,101882.62
2019-04-13T16:19:43.769Z,101881.33
2019-04-13T16:22:13.407Z,101882.72
2019-04-13T16:24:41.984Z,101884.14
2019-04-13T16:27:10.627Z,101877.70
2019-04-13T16:29:49.686Z,101883.07
2019-04-13T16:32:20.925Z,101880.30
2019-04-13T16:35:00.232Z,101884.52
2019-04-13T16:37:30.333Z,101880.46
2019-04-13T16:39:59.909Z,101877.95
2019-04-13T16:42:31.206Z,101878.42
2019-04-13T16:45:19.053Z,101882.17
2019-04-13T16:47:49.611Z,101883.28
2019-04-13T16:50:23.741Z,101883.85
2019-04-13T16:53:06.283Z,101887.23
2019-04-13T16:55:45.475Z,101884.73
2019-04-13T16:58:19.292Z,101884.26
2019-04-13T17:00:56.092Z,101890.56
2019-04-13T17:03:27.106Z,101883.80
2019-04-13T17:05:58.263Z,101892.55
2019-04-13T17:08:26.911Z,101883.61
2019-04-13T17:10:56.335Z,101895.33
2019-04-13T17:13:26.211Z,101896.62
2019-04-13T17:15:54.759Z,101890.07
2019-04-13T17:18:33.912Z,101900.30
2019-04-13T17:21:20.762Z,101896.12
2019-04-13T17:24:00.752Z,101897.72
2019-04-13T17:26:33.726Z,101893.42
2019-04-13T17:29:04.398Z,101891.23
2019-04-13T17:31:34.996Z,101899.11
2019-04-13T17:34:11.440Z,101895.13
2019-04-13T17:36:42.041Z,101906.27
2019-04-13T17:39:10.942Z,101902.95
2019-04-13T17:41:56.970Z,101900.97
2019-04-13T17:44:27.102Z,101904.66
2019-04-13T17:47:03.701Z,101910.23
2019-04-13T17:49:50.808Z,101910.12
2019-04-13T17:52:37.171Z,101904.27
2019-04-13T17:55:21.075Z,101906.05
2019-04-13T17:57:55.853Z,101913.70
2019-04-13T18:00:42.969Z,101915.09
2019-04-13T18:03:13.445Z,101910.00
2019-04-13T18:05:43.691Z,101921.86
2019-04-13T18:08:16.614Z,101918.08
2019-04-13T18:10:56.766Z,101921.32
2019-04-13T18:13:30.553Z,101920.64
2019-04-13T18:16:11.357Z,101925.93
2019-04-13T18:18:41.644Z,101925.39
2019-04-13T18:21:10.355Z,101931.87
2019-04-13T18:23:38.829Z,101935.23
2019-04-13T18:26:08.495Z,101941.18
2019-04-13T18:28:37.933Z,101945.97
2019-04-13T18:31:06.534Z,101942.37
2019-04-13T18:33:34.971Z,101944.57
2019-04-13T18:36:04.750Z,101947.16
2019-04-13T18:38:33.389Z,101948.62
2019-04-13T18:41:01.870Z,101946.28
2019-04-13T18:43:31.374Z,101953.84
2019-04-13T18:46:01.882Z,101953.03
2019-04-13T18:48:31.966Z,101954.91
2019-04-13T18:51:01.056Z,101956.60
2019-04-13T18:53:29.905Z,101946.92
2019-04-13T18:55:58.353Z,101956.39
2019-04-13T18:58:27.151Z,101959.09
2019-04-13T19:00:55.693Z,101965.21
2019-04-13T19:03:24.153Z,101961.74
2019-04-13T19:05:52.610Z,101970.78
2019-04-13T19:08:21.063Z,101971.64
2019-04-13T19:10:49.522Z,101961.48
2019-04-13T19:13:17.987Z,101964.46
2019-04-13T19:15:46.433Z,101969.80
2019-04-13T19:18:14.906Z,101967.02
2019-04-13T19:20:43.368Z,101974.59
2019-04-13T19:23:11.824Z,101969.59
2019-04-13T19:25:40.325Z,101979.33
2019-04-13T19:28:08.817Z,101964.71
2019-04-13T19:30:38.422Z,101964.80
2019-04-13T19:33:06.935Z,101968.30
2019-04-13T19:35:35.645Z,101969.39
2019-04-13T19:38:04.115Z,101973.92
2019-04-13T19:40:32.564Z,101971.58
2019-04-13T19:43:01.061Z,101973.52
2019-04-13T19:45:29.556Z,101971.22
2019-04-13T19:47:58.018Z,101970.84
2019-04-13T19:50:26.453Z,101962.70
2019-04-13T19:52:56.582Z,101963.34
2019-04-13T19:55:25.023Z,101957.17
2019-04-13T19:57:53.467Z,101974.14
2019-04-13T20:00:23.562Z,101968.86
2019-04-13T20:02:52.019Z,101971.67
2019-04-13T20:05:20.452Z,101969.42
2019-04-13T20:07:48.899Z,101973.08
2019-04-13T20:10:17.334Z,101969.39
2019-04-13T20:12:46.867Z,101968.09
2019-04-13T20:15:16.109Z,101967.56
2019-04-13T20:17:44.657Z,101968.64
2019-04-13T20:20:13.268Z,101968.17
2019-04-13T20:22:41.718Z,101981.13
2019-04-13T20:25:11.387Z,101967.22
2019-04-13T20:27:41.061Z,101969.68
2019-04-13T20:30:10.836Z,101970.30
2019-04-13T20:32:40.440Z,101956.97
2019-04-13T20:35:10.507Z,101978.47
2019-04-13T20:37:40.358Z,101972.30
2019-04-13T20:40:14.190Z,101968.83
2019-04-13T20:42:43.782Z,101972.97
2019-04-13T20:45:14.187Z,101975.08
2019-04-13T20:47:43.650Z,101972.57
2019-04-13T20:50:12.343Z,101978.86
2019-04-13T20:52:41.912Z,101978.55
2019-04-13T20:55:12.789Z,101975.64
2019-04-13T20:57:41.212Z,101979.16
2019-04-13T21:00:10.226Z,101974.62
2019-04-13T21:02:39.641Z,101977.51
2019-04-13T21:05:09.892Z,101977.84
2019-04-13T21:07:38.688Z,101980.51
2019-04-13T21:10:07.698Z,101981.98
2019-04-13T21:12:36.165Z,101987.02
2019-04-13T21:15:07.468Z,101978.18
2019-04-13T21:17:36.030Z,101979.14
2019-04-13T21:20:05.896Z,101981.19
2019-04-13T21:22:35.605Z,101980.91
2019-04-13T21:25:05.675Z,101992.84
2019-04-13T21:27:34.136Z,101984.38
2019-04-13T21:30:03.403Z,101982.32
2019-04-13T21:32:31.999Z,101979.16
2019-04-13T21:35:01.559Z,101979.28
2019-04-13T21:37:31.244Z,101978.18
2019-04-13T21:39:59.830Z,101978.61
2019-04-13T21:42:28.280Z,101979.56
2019-04-13T21:44:57.208Z,101971.48
2019-04-13T21:47:26.959Z,101986.20
2019-04-13T21:49:58.032Z,101977.44
2019-04-13T21:52:39.022Z,101977.59
2019-04-13T21:55:07.863Z,101980.23
2019-04-13T21:57:37.216Z,101981.56
2019-04-13T22:00:09.877Z,101980.84
2019-04-13T22:02:39.552Z,101980.41
2019-04-13T22:05:09.693Z,101980.69
2019-04-13T22:07:39.513Z,101976.34
2019-04-13T22:10:09.301Z,101981.44
2019-04-13T22:12:39.248Z,101976.34
2019-04-13T22:15:10.945Z,101977.08
2019-04-13T22:17:37.979Z,101983.80
2019-04-13T22:20:06.580Z,101980.25
2019-04-13T22:22:35.710Z,101982.67
2019-04-13T22:25:06.038Z,101979.45
2019-04-13T22:27:48.346Z,101980.52
2019-04-13T22:30:10.290Z,101980.82
2019-04-13T22:32:43.277Z,101985.25
2019-04-13T22:35:13.423Z,101987.33
2019-04-13T22:37:42.787Z,101991.61
2019-04-13T22:40:13.065Z,101993.02
2019-04-13T22:42:42.594Z,101983.13
2019-04-13T22:45:14.341Z,101989.91
2019-04-13T22:47:43.279Z,101998.31
2019-04-13T22:50:13.724Z,101995.38
2019-04-13T22:52:47.455Z,101993.02
2019-04-13T22:55:34.601Z,102001.28
2019-04-13T22:58:03.015Z,102007.38
2019-04-13T23:00:34.411Z,102002.89
2019-04-13T23:03:04.963Z,102011.38
2019-04-13T23:05:34.962Z,102002.62
2019-04-13T23:08:03.507Z,102004.22
2019-04-13T23:10:33.304Z,102003.81
2019-04-13T23:13:01.845Z,102008.44
2019-04-13T23:15:35.403Z,101998.23
2019-04-13T23:18:01.631Z,102001.28
2019-04-13T23:20:30.132Z,102005.23
2019-04-13T23:22:58.589Z,101998.13
2019-04-13T23:25:27.051Z,101995.70
2019-04-13T23:27:55.518Z,102000.08
2019-04-13T23:30:25.498Z,102006.70
2019-04-13T23:32:55.283Z,102005.28
2019-04-13T23:35:23.962Z,101998.30
2019-04-13T23:37:52.403Z,101977.41
2019-04-13T23:40:20.883Z,101990.63
2019-04-13T23:42:50.401Z,101993.30
2019-04-13T23:45:26.993Z,101990.73
2019-04-13T23:47:51.584Z,101984.55
2019-04-13T23:50:20.234Z,101993.06
2019-04-13T23:52:48.699Z,101987.92
2019-04-13T23:55:18.782Z,101988.99
2019-04-13T23:58:04.130Z,101987.03
